Time;durP1;ratioP1;P1;durP2;ratioP2;P2;SDS_P1;SDS_P2;PMS_P1;PMS_P2;Temp;Humidity;BMP_temperature;BMP_pressure;BME280_temperature;BME280_humidity;BME280_pressure;Samples;Min_cycle;Max_cycle;Signal;HPM_P1;HPM_P2
2022/02/03 00:00:42;;;;;;;1.80;0.50;;;;;;;;;;5133750;27;20549;-62
2022/02/03 00:03:25;;;;;;;5.93;1.27;;;;;;;;;;5133970;27;20016;-60
2022/02/03 00:05:57;;;;;;;;;;;;;;;;;;5134403;27;20389;-63
2022/02/03 00:08:50;;;;;;;2.25;0.50;;;;;;;;;;5115192;27;20384;-63
2022/02/03 00:21:59;;;;;;;5.88;0.82;;;;;;;;;;5112169;28;20046;-62
2022/02/03 00:22:55;;;;;;;5.72;0.80;;;;;;;;;;5133185;27;20050;-61
2022/02/03 00:25:29;;;;;;;4.75;0.80;;;;;;;;;;5133450;27;20729;-61
2022/02/03 00:28:04;;;;;;;2.42;0.70;;;;;;;;;;5133303;27;20026;-60
2022/02/03 00:48:19;;;;;;;4.63;0.63;;;;;;;;;;5112746;28;20109;-61
2022/02/03 00:49:16;;;;;;;3.00;0.68;;;;;;;;;;5111759;28;20391;-60
2022/02/03 00:51:51;;;;;;;4.53;1.00;;;;;;;;;;5112156;28;20024;-66
2022/02/03 00:54:20;;;;;;;2.80;0.73;;;;;;;;;;5112357;28;20019;-64
2022/02/03 00:56:54;;;;;;;3.33;0.95;;;;;;;;;;5111911;28;20058;-62
2022/02/03 00:59:28;;;;;;;4.13;0.93;;;;;;;;;;5093622;28;20075;-60
2022/02/03 01:01:57;;;;;;;4.15;0.98;;;;;;;;;;5111950;28;20022;-60
2022/02/03 01:04:24;;;;;;;2.33;0.75;;;;;;;;;;5110846;28;20066;-60
2022/02/03 01:06:53;;;;;;;6.43;0.98;;;;;;;;;;5093655;28;20374;-60
2022/02/03 01:09:23;;;;;;;3.05;0.93;;;;;;;;;;5093518;28;20046;-60
2022/02/03 01:11:56;;;;;;;3.63;0.88;;;;;;;;;;5111609;28;20028;-60
2022/02/03 01:14:38;;;;;;;2.85;0.90;;;;;;;;;;5110996;28;20016;-60
2022/02/03 01:17:26;;;;;;;4.03;1.00;;;;;;;;;;5111472;28;20027;-59
2022/02/03 01:33:34;;;;;;;6.60;1.00;;;;;;;;;;5111585;28;20027;-61
2022/02/03 01:37:08;;;;;;;4.75;1.20;;;;;;;;;;5109521;27;20466;-60
2022/02/03 01:45:25;;;;;;;9.05;1.48;;;;;;;;;;5103876;28;20031;-61
2022/02/03 01:52:49;;;;;;;5.93;1.48;;;;;;;;;;5133484;27;20076;-61
2022/02/03 01:55:24;;;;;;;12.55;1.70;;;;;;;;;;5088889;28;20500;-59
2022/02/03 01:57:57;;;;;;;6.72;1.58;;;;;;;;;;5116149;27;20054;-61
2022/02/03 02:00:22;;;;;;;;;;;;;;;;;;5129285;27;20390;-62
2022/02/03 02:02:51;;;;;;;6.82;1.33;;;;;;;;;;5124659;27;20382;-61
2022/02/03 02:05:25;;;;;;;6.97;1.70;;;;;;;;;;5133459;27;20020;-62
2022/02/03 02:07:57;;;;;;;7.30;1.48;;;;;;;;;;5133695;27;20031;-60
2022/02/03 02:13:16;;;;;;;8.30;1.38;;;;;;;;;;5112572;28;20472;-60
2022/02/03 02:16:08;;;;;;;5.65;1.50;;;;;;;;;;5112480;28;20102;-62
2022/02/03 02:41:33;;;;;;;5.93;1.58;;;;;;;;;;5103555;28;20379;-62
2022/02/03 02:43:06;;;;;;;5.72;1.40;;;;;;;;;;5085018;28;20355;-60
2022/02/03 02:45:39;;;;;;;5.32;1.27;;;;;;;;;;5096320;28;20054;-67
2022/02/03 02:48:08;;;;;;;5.05;1.83;;;;;;;;;;5096396;28;20016;-64
2022/02/03 02:50:57;;;;;;;5.32;1.80;;;;;;;;;;5104493;27;20063;-61
2022/02/03 02:54:00;;;;;;;4.97;1.70;;;;;;;;;;5120785;27;20084;-61
2022/02/03 02:59:33;;;;;;;4.45;1.58;;;;;;;;;;5116665;28;20066;-60
2022/02/03 03:37:08;;;;;;;6.80;1.40;;;;;;;;;;5095212;28;20087;-60
2022/02/03 03:39:43;;;;;;;6.55;1.40;;;;;;;;;;5103489;28;20032;-61
2022/02/03 03:42:14;;;;;;;7.32;1.83;;;;;;;;;;5115654;28;20532;-60
2022/02/03 03:44:41;;;;;;;7.22;1.73;;;;;;;;;;5108239;27;20463;-61
2022/02/03 03:47:11;;;;;;;11.55;1.77;;;;;;;;;;5135751;27;20481;-62
2022/02/03 03:49:44;;;;;;;6.47;1.73;;;;;;;;;;5135944;27;20015;-61
2022/02/03 03:52:18;;;;;;;7.20;1.80;;;;;;;;;;5135982;27;20770;-60
2022/02/03 03:55:00;;;;;;;6.15;1.48;;;;;;;;;;5135962;27;20043;-60
2022/02/03 04:37:32;;;;;;;4.93;1.20;;;;;;;;;;5095054;28;20098;-60
2022/02/03 04:42:57;;;;;;;6.45;1.10;;;;;;;;;;5094416;28;20146;-63
2022/02/03 05:03:14;;;;;;;4.53;1.02;;;;;;;;;;5093914;28;20042;-62
2022/02/03 05:11:21;;;;;;;19.27;1.40;;;;;;;;;;5106009;28;20510;-60
2022/02/03 05:22:47;;;;;;;13.68;1.77;;;;;;;;;;5093643;28;20077;-61
2022/02/03 06:01:44;;;;;;;2.42;1.00;;;;;;;;;;5073691;28;20030;-59
2022/02/03 06:04:15;;;;;;;4.13;1.20;;;;;;;;;;5102661;27;20027;-61
2022/02/03 06:14:33;;;;;;;3.80;0.90;;;;;;;;;;5112436;28;20071;-61
2022/02/03 06:17:17;;;;;;;4.80;1.17;;;;;;;;;;5112049;28;20019;-60
2022/02/03 06:22:42;;;;;;;4.15;1.00;;;;;;;;;;5133502;27;20035;-60
2022/02/03 06:27:43;;;;;;;3.15;1.00;;;;;;;;;;5112903;28;20048;-63
2022/02/03 06:30:10;;;;;;;21.85;1.42;;;;;;;;;;5112848;28;20099;-62
2022/02/03 06:32:42;;;;;;;20.25;1.80;;;;;;;;;;5112061;28;20028;-61
2022/02/03 06:35:10;;;;;;;13.65;1.20;;;;;;;;;;5098551;28;20027;-60
2022/02/03 06:37:37;;;;;;;47.08;1.92;;;;;;;;;;5098857;28;20031;-62
2022/02/03 06:40:04;;;;;;;23.75;1.98;;;;;;;;;;5099035;28;20028;-62
2022/02/03 06:42:30;;;;;;;14.20;1.52;;;;;;;;;;5112599;28;20028;-62
2022/02/03 06:45:03;;;;;;;14.40;2.05;;;;;;;;;;5108172;28;20028;-61
2022/02/03 06:47:47;;;;;;;12.70;1.38;;;;;;;;;;5092138;28;20035;-61
2022/02/03 06:55:57;;;;;;;11.63;1.58;;;;;;;;;;5100495;28;20043;-62
2022/02/03 06:58:01;;;;;;;11.93;1.70;;;;;;;;;;5094099;28;20032;-62
2022/02/03 07:00:35;;;;;;;13.30;1.50;;;;;;;;;;5092066;28;20070;-62
2022/02/03 07:03:04;;;;;;;11.18;1.40;;;;;;;;;;5073919;28;20375;-62
2022/02/03 07:05:30;;;;;;;8.10;1.40;;;;;;;;;;5091978;28;20036;-62
2022/02/03 07:07:56;;;;;;;21.45;1.42;;;;;;;;;;5091072;28;20036;-65
2022/02/03 07:10:23;;;;;;;6.53;1.05;;;;;;;;;;5093755;28;20099;-62
2022/02/03 07:12:49;;;;;;;11.50;1.50;;;;;;;;;;5111358;28;20024;-61
2022/02/03 07:15:15;;;;;;;10.52;1.15;;;;;;;;;;5112371;28;20019;-63
2022/02/03 07:17:41;;;;;;;20.02;1.40;;;;;;;;;;5112287;28;20538;-62
2022/02/03 07:20:08;;;;;;;15.25;1.55;;;;;;;;;;5111996;28;20501;-61
2022/02/03 07:22:37;;;;;;;7.85;1.13;;;;;;;;;;5112143;28;20024;-61
2022/02/03 07:25:03;;;;;;;6.05;1.27;;;;;;;;;;5105709;28;20035;-62
2022/02/03 07:27:29;;;;;;;8.82;1.65;;;;;;;;;;5100937;27;20023;-61
2022/02/03 07:29:55;;;;;;;7.05;1.40;;;;;;;;;;5136402;27;20027;-61
2022/02/03 07:32:22;;;;;;;4.88;1.30;;;;;;;;;;5118891;27;20016;-62
2022/02/03 07:34:57;;;;;;;8.65;1.58;;;;;;;;;;5128081;27;20454;-61
2022/02/03 07:37:25;;;;;;;5.72;1.48;;;;;;;;;;5115806;28;20050;-64
2022/02/03 07:39:51;;;;;;;4.15;1.23;;;;;;;;;;5109244;28;20604;-64
2022/02/03 07:42:17;;;;;;;12.85;1.23;;;;;;;;;;5077124;28;20017;-60
2022/02/03 07:44:43;;;;;;;5.75;1.10;;;;;;;;;;5105009;27;20340;-61
2022/02/03 07:47:09;;;;;;;6.60;1.48;;;;;;;;;;5127481;27;20026;-61
2022/02/03 07:49:35;;;;;;;4.38;1.50;;;;;;;;;;5100538;28;20061;-62
2022/02/03 07:52:04;;;;;;;4.78;1.10;;;;;;;;;;5114432;27;20027;-66
2022/02/03 07:54:34;;;;;;;6.38;1.50;;;;;;;;;;5101102;28;20052;-63
2022/02/03 07:57:03;;;;;;;6.68;1.20;;;;;;;;;;5095204;28;20035;-61
2022/02/03 07:59:29;;;;;;;11.27;1.42;;;;;;;;;;5114579;28;20064;-62
2022/02/03 08:01:55;;;;;;;7.13;1.20;;;;;;;;;;5114741;28;20098;-62
2022/02/03 08:04:27;;;;;;;4.40;1.30;;;;;;;;;;5112432;28;20046;-69
2022/02/03 08:06:53;;;;;;;6.03;1.50;;;;;;;;;;5103063;28;20139;-64
2022/02/03 08:09:29;;;;;;;5.93;1.17;;;;;;;;;;5102625;28;20035;-64
2022/02/03 08:11:55;;;;;;;2.47;1.15;;;;;;;;;;5114657;28;20025;-64
2022/02/03 08:17:04;;;;;;;5.32;1.33;;;;;;;;;;5114719;28;20124;-63
2022/02/03 08:19:46;;;;;;;4.32;1.67;;;;;;;;;;5115124;28;20043;-62
2022/02/03 08:22:17;;;;;;;3.13;1.27;;;;;;;;;;5096519;28;20127;-61
2022/02/03 08:24:48;;;;;;;5.38;1.35;;;;;;;;;;5114765;28;20024;-61
2022/02/03 08:32:25;;;;;;;4.38;1.45;;;;;;;;;;5124211;27;20047;-66
2022/02/03 08:40:24;;;;;;;7.13;1.60;;;;;;;;;;5091426;28;20036;-66
2022/02/03 08:42:51;;;;;;;6.53;1.65;;;;;;;;;;5114136;28;20027;-66
2022/02/03 08:45:17;;;;;;;4.05;2.13;;;;;;;;;;5095875;28;20391;-65
2022/02/03 08:47:43;;;;;;;2.95;1.48;;;;;;;;;;5096802;28;20124;-62
2022/02/03 08:50:09;;;;;;;3.63;1.23;;;;;;;;;;5094069;28;20024;-65
2022/02/03 08:53:40;;;;;;;6.40;1.35;;;;;;;;;;5093489;28;20020;-60
2022/02/03 08:55:43;;;;;;;6.22;1.75;;;;;;;;;;5079623;28;20040;-61
2022/02/03 09:33:02;;;;;;;9.80;1.55;;;;;;;;;;5073520;28;20476;-67
2022/02/03 09:56:07;;;;;;;5.60;1.33;;;;;;;;;;5098317;28;20062;-70
2022/02/03 09:58:42;;;;;;;5.57;1.38;;;;;;;;;;5100189;28;20055;-70
2022/02/03 10:01:11;;;;;;;7.85;1.20;;;;;;;;;;5105311;28;20546;-70
2022/02/03 10:03:51;;;;;;;3.92;1.50;;;;;;;;;;5107895;28;20072;-70
2022/02/03 10:06:23;;;;;;;10.48;1.63;;;;;;;;;;5098160;28;20024;-70
2022/02/03 10:08:54;;;;;;;2.70;1.33;;;;;;;;;;5103699;28;20008;-70
2022/02/03 10:11:20;;;;;;;2.70;1.10;;;;;;;;;;5099244;28;20134;-70
2022/02/03 10:13:50;;;;;;;5.10;1.25;;;;;;;;;;5101865;28;20107;-71
2022/02/03 10:16:17;;;;;;;6.25;1.30;;;;;;;;;;5099923;28;20051;-71
2022/02/03 10:18:43;;;;;;;2.58;1.10;;;;;;;;;;5103757;28;20526;-70
2022/02/03 10:21:14;;;;;;;4.80;1.45;;;;;;;;;;5098383;28;20629;-71
2022/02/03 10:23:53;;;;;;;10.63;1.27;;;;;;;;;;5092785;28;20028;-67
2022/02/03 10:26:20;;;;;;;1.70;1.00;;;;;;;;;;5094467;28;20040;-67
2022/02/03 10:28:54;;;;;;;4.63;1.00;;;;;;;;;;5100200;28;20531;-68
2022/02/03 10:31:24;;;;;;;4.43;1.40;;;;;;;;;;5100016;28;20077;-67
2022/02/03 10:33:53;;;;;;;2.03;1.00;;;;;;;;;;5100711;28;20073;-68
2022/02/03 10:36:41;;;;;;;4.95;1.20;;;;;;;;;;5097246;28;20689;-68
2022/02/03 10:39:36;;;;;;;5.65;1.15;;;;;;;;;;5104039;28;20455;-67
2022/02/03 10:42:13;;;;;;;2.58;1.02;;;;;;;;;;5100969;28;20375;-67
2022/02/03 10:57:47;;;;;;;1.25;0.95;;;;;;;;;;5102733;28;20494;-67
2022/02/03 11:00:50;;;;;;;2.25;1.02;;;;;;;;;;5103770;28;20044;-67
2022/02/03 11:08:23;;;;;;;2.58;1.00;;;;;;;;;;5110448;28;20098;-66
2022/02/03 11:10:55;;;;;;;1.23;0.70;;;;;;;;;;5108731;28;20077;-68
2022/02/03 11:13:22;;;;;;;3.28;0.90;;;;;;;;;;5109777;28;20402;-67
2022/02/03 11:15:49;;;;;;;2.22;0.90;;;;;;;;;;5100514;28;20052;-67
2022/02/03 11:18:17;;;;;;;1.58;0.90;;;;;;;;;;5077447;28;20039;-66
2022/02/03 11:20:44;;;;;;;1.38;0.90;;;;;;;;;;5096634;28;20107;-67
2022/02/03 11:23:21;;;;;;;2.53;1.10;;;;;;;;;;5115596;28;20084;-67
2022/02/03 11:41:39;;;;;;;15.77;1.33;;;;;;;;;;5115175;28;20131;-66
2022/02/03 11:53:28;;;;;;;16.65;1.27;;;;;;;;;;5114153;27;20087;-70
2022/02/03 11:56:17;;;;;;;6.43;1.17;;;;;;;;;;5092042;28;20046;-68
2022/02/03 12:01:38;;;;;;;11.60;1.33;;;;;;;;;;5031373;28;20104;-68
2022/02/03 12:17:47;;;;;;;6.32;1.02;;;;;;;;;;5107796;28;20027;-66
2022/02/03 12:20:19;;;;;;;3.60;0.80;;;;;;;;;;5087280;28;20020;-68
2022/02/03 12:22:59;;;;;;;;;;;;;;;;;;5102905;28;20016;-66
2022/02/03 12:25:59;;;;;;;1.98;0.75;;;;;;;;;;5095002;28;19904;-67
2022/02/03 12:28:34;;;;;;;1.98;1.00;;;;;;;;;;5083661;28;20024;-67
2022/02/03 12:31:13;;;;;;;1.98;0.98;;;;;;;;;;5091194;28;20016;-68
2022/02/03 12:38:54;;;;;;;3.60;1.00;;;;;;;;;;5103167;28;20085;-68
2022/02/03 12:41:32;;;;;;;3.75;0.80;;;;;;;;;;5097567;28;20036;-68
2022/02/03 12:44:02;;;;;;;2.25;0.90;;;;;;;;;;5113439;28;20039;-68
2022/02/03 12:46:28;;;;;;;2.45;1.00;;;;;;;;;;5108329;28;20028;-66
2022/02/03 12:48:55;;;;;;;3.35;0.80;;;;;;;;;;5093648;28;20032;-67
2022/02/03 12:51:23;;;;;;;1.80;1.00;;;;;;;;;;5094237;28;20039;-67
2022/02/03 12:53:49;;;;;;;4.38;0.90;;;;;;;;;;5093979;28;20486;-67
2022/02/03 12:56:15;;;;;;;2.47;0.80;;;;;;;;;;5094203;28;20035;-69
2022/02/03 12:58:47;;;;;;;4.07;0.90;;;;;;;;;;5095558;28;20059;-68
2022/02/03 13:01:21;;;;;;;5.05;0.95;;;;;;;;;;5115111;27;20403;-66
2022/02/03 13:03:50;;;;;;;3.53;0.90;;;;;;;;;;5105424;27;20032;-67
2022/02/03 13:06:19;;;;;;;3.55;0.95;;;;;;;;;;5078160;28;20483;-65
2022/02/03 13:08:47;;;;;;;7.22;1.23;;;;;;;;;;5093453;28;20024;-71
2022/02/03 13:16:25;;;;;;;4.75;1.33;;;;;;;;;;5094087;28;20021;-73
2022/02/03 13:22:03;;;;;;;4.28;1.48;;;;;;;;;;5093196;28;20024;-69
2022/02/03 13:27:22;;;;;;;13.32;1.67;;;;;;;;;;5062126;28;20039;-70
2022/02/03 13:29:58;;;;;;;9.07;1.83;;;;;;;;;;5114258;28;20015;-70
2022/02/03 13:32:29;;;;;;;11.65;1.70;;;;;;;;;;5095892;28;20110;-71
2022/02/03 13:35:02;;;;;;;6.90;1.88;;;;;;;;;;5114061;28;20015;-69
2022/02/03 13:37:37;;;;;;;5.97;1.95;;;;;;;;;;5095783;28;20383;-69
2022/02/03 13:40:04;;;;;;;4.95;1.80;;;;;;;;;;5103042;28;20371;-69
2022/02/03 13:42:31;;;;;;;5.03;1.40;;;;;;;;;;5093324;28;20043;-69
2022/02/03 13:45:04;;;;;;;6.07;1.55;;;;;;;;;;5093586;28;20056;-69
2022/02/03 13:47:35;;;;;;;5.53;1.73;;;;;;;;;;5093575;28;20020;-70
2022/02/03 13:50:06;;;;;;;6.38;1.73;;;;;;;;;;5093162;28;20073;-70
2022/02/03 13:53:20;;;;;;;5.47;1.27;;;;;;;;;;5093100;28;20024;-70
2022/02/03 14:28:01;;;;;;;4.78;1.50;;;;;;;;;;5093212;28;20418;-69
2022/02/03 14:30:28;;;;;;;6.70;1.80;;;;;;;;;;5092834;28;20158;-70
2022/02/03 14:32:57;;;;;;;4.05;1.85;;;;;;;;;;5073632;28;20025;-68
2022/02/03 14:35:23;;;;;;;3.75;1.60;;;;;;;;;;5092671;28;20024;-68
2022/02/03 14:38:13;;;;;;;4.95;1.42;;;;;;;;;;5074494;28;20177;-69
2022/02/03 14:40:53;;;;;;;4.40;1.45;;;;;;;;;;5092341;28;20054;-68
2022/02/03 14:43:19;;;;;;;3.20;1.40;;;;;;;;;;5092636;28;20023;-68
2022/02/03 14:45:45;;;;;;;3.00;1.45;;;;;;;;;;5092936;28;20099;-68
2022/02/03 14:48:14;;;;;;;3.92;1.42;;;;;;;;;;5092751;28;20051;-69
2022/02/03 14:50:40;;;;;;;4.30;1.60;;;;;;;;;;5092564;28;20012;-71
2022/02/03 14:53:16;;;;;;;5.03;1.77;;;;;;;;;;5074017;28;20028;-69
2022/02/03 14:58:27;;;;;;;2.38;1.58;;;;;;;;;;5092176;28;20132;-70
2022/02/03 15:00:54;;;;;;;5.22;2.05;;;;;;;;;;5077320;28;20039;-71
2022/02/03 15:03:22;;;;;;;2.85;1.52;;;;;;;;;;5096713;28;20020;-70
2022/02/03 15:05:48;;;;;;;3.45;1.40;;;;;;;;;;5074190;28;20495;-69
2022/02/03 15:08:18;;;;;;;3.38;1.60;;;;;;;;;;5092152;28;20546;-69
2022/02/03 15:15:41;;;;;;;2.78;1.60;;;;;;;;;;5107050;28;20043;-70
2022/02/03 15:18:08;;;;;;;4.63;1.70;;;;;;;;;;5085659;28;20028;-70
2022/02/03 15:20:35;;;;;;;3.45;1.40;;;;;;;;;;5112479;28;20028;-69
2022/02/03 15:23:02;;;;;;;4.45;1.60;;;;;;;;;;5114326;28;20558;-71
2022/02/03 15:25:28;;;;;;;3.22;1.40;;;;;;;;;;5115648;28;20047;-66
2022/02/03 15:27:55;;;;;;;3.95;1.67;;;;;;;;;;5112695;28;20031;-66
2022/02/03 15:30:21;;;;;;;4.43;1.45;;;;;;;;;;5112294;28;20046;-69
2022/02/03 15:32:49;;;;;;;3.30;1.45;;;;;;;;;;5093852;28;20027;-66
2022/02/03 15:35:23;;;;;;;6.53;1.85;;;;;;;;;;5087018;28;20013;-65
2022/02/03 15:37:50;;;;;;;5.70;1.50;;;;;;;;;;5076508;28;20047;-70
2022/02/03 15:40:20;;;;;;;4.80;2.00;;;;;;;;;;5083235;28;20021;-68
2022/02/03 15:45:45;;;;;;;3.65;1.92;;;;;;;;;;5067154;28;20023;-65
2022/02/03 15:51:10;;;;;;;4.43;1.98;;;;;;;;;;5088084;28;20052;-65
2022/02/03 16:17:27;;;;;;;5.28;1.60;;;;;;;;;;5112310;28;20115;-70
2022/02/03 16:20:04;;;;;;;5.43;1.58;;;;;;;;;;5097407;28;20042;-70
2022/02/03 16:52:34;;;;;;;6.40;1.63;;;;;;;;;;5109445;28;20039;-66
2022/02/03 16:55:05;;;;;;;6.70;1.30;;;;;;;;;;5110055;28;20529;-64
2022/02/03 16:57:31;;;;;;;3.90;1.20;;;;;;;;;;5113895;28;20016;-65
2022/02/03 17:00:09;;;;;;;3.85;1.58;;;;;;;;;;5099896;28;20106;-64
2022/02/03 17:02:35;;;;;;;2.83;1.20;;;;;;;;;;5104513;28;20406;-65
2022/02/03 17:05:01;;;;;;;4.65;1.35;;;;;;;;;;5102618;28;20031;-65
2022/02/03 17:07:27;;;;;;;8.30;2.75;;;;;;;;;;5103694;28;20076;-69
2022/02/03 17:09:57;;;;;;;22.30;6.47;;;;;;;;;;5090685;28;20070;-70
2022/02/03 17:12:23;;;;;;;25.55;8.38;;;;;;;;;;5084426;28;20150;-65
2022/02/03 17:14:49;;;;;;;21.80;7.45;;;;;;;;;;5106274;28;20023;-69
2022/02/03 17:17:18;;;;;;;19.40;6.97;;;;;;;;;;5081300;28;20031;-64
2022/02/03 17:19:44;;;;;;;18.75;8.00;;;;;;;;;;5105364;28;20047;-63
2022/02/03 17:22:11;;;;;;;27.35;8.80;;;;;;;;;;5112733;28;20096;-63
2022/02/03 17:24:42;;;;;;;25.77;8.13;;;;;;;;;;5113736;28;20406;-64
2022/02/03 17:27:19;;;;;;;27.80;8.38;;;;;;;;;;5113274;28;20072;-65
2022/02/03 17:44:53;;;;;;;26.58;10.75;;;;;;;;;;5113357;28;20023;-65
2022/02/03 17:52:17;;;;;;;22.60;10.27;;;;;;;;;;5109287;28;20096;-65
2022/02/03 18:11:02;;;;;;;18.80;7.55;;;;;;;;;;5113400;28;20497;-64
2022/02/03 18:34:53;;;;;;;12.35;5.40;;;;;;;;;;5100853;28;20039;-63
2022/02/03 18:51:20;;;;;;;18.20;4.22;;;;;;;;;;5085370;28;20055;-71
2022/02/03 18:56:24;;;;;;;30.02;3.97;;;;;;;;;;5108716;28;20065;-68
2022/02/03 18:59:58;;;;;;;36.72;4.47;;;;;;;;;;5112525;28;20023;-64
2022/02/03 19:10:06;;;;;;;48.30;3.55;;;;;;;;;;5105980;28;20051;-67
2022/02/03 19:26:33;;;;;;;29.55;2.83;;;;;;;;;;5115941;28;20386;-68
2022/02/03 20:01:58;;;;;;;16.42;1.63;;;;;;;;;;5082189;28;20499;-68
2022/02/03 20:07:20;;;;;;;13.52;1.30;;;;;;;;;;5075233;28;20024;-67
2022/02/03 20:12:18;;;;;;;10.77;1.48;;;;;;;;;;5075033;28;20395;-68
2022/02/03 20:14:44;;;;;;;8.40;1.40;;;;;;;;;;5056838;28;20770;-67
2022/02/03 20:17:12;;;;;;;8.43;1.02;;;;;;;;;;5097842;28;20032;-67
2022/02/03 20:19:38;;;;;;;8.75;1.23;;;;;;;;;;5094817;28;20055;-68
2022/02/03 20:22:05;;;;;;;7.38;0.90;;;;;;;;;;5096432;28;20474;-69
2022/02/03 20:24:31;;;;;;;6.35;1.00;;;;;;;;;;5086368;28;20035;-72
2022/02/03 20:26:57;;;;;;;5.85;1.10;;;;;;;;;;5079952;28;20028;-67
2022/02/03 20:29:23;;;;;;;4.75;1.17;;;;;;;;;;5094439;28;20047;-67
2022/02/03 20:31:49;;;;;;;10.65;1.10;;;;;;;;;;5093201;28;20020;-67
2022/02/03 20:34:15;;;;;;;6.80;0.98;;;;;;;;;;5093685;28;20059;-71
2022/02/03 20:36:41;;;;;;;9.43;1.10;;;;;;;;;;5094225;28;20039;-65
2022/02/03 20:39:07;;;;;;;6.45;0.90;;;;;;;;;;5094510;28;20543;-65
2022/02/03 20:41:33;;;;;;;6.38;1.08;;;;;;;;;;5094783;28;20036;-67
2022/02/03 20:43:59;;;;;;;6.20;0.90;;;;;;;;;;5094417;28;20032;-65
2022/02/03 20:46:25;;;;;;;8.00;1.45;;;;;;;;;;5094472;28;20070;-67
2022/02/03 20:48:51;;;;;;;9.73;1.13;;;;;;;;;;5075713;28;20024;-66
2022/02/03 20:51:18;;;;;;;3.70;0.80;;;;;;;;;;5094426;28;20042;-69
2022/02/03 20:53:45;;;;;;;7.35;0.90;;;;;;;;;;5094822;28;20051;-67
2022/02/03 20:56:11;;;;;;;7.03;0.70;;;;;;;;;;5114591;28;20501;-67
2022/02/03 20:58:39;;;;;;;2.40;0.70;;;;;;;;;;5114467;28;20035;-66
2022/02/03 21:01:31;;;;;;;4.82;0.82;;;;;;;;;;5102362;28;20016;-67
2022/02/03 21:03:58;;;;;;;6.15;0.88;;;;;;;;;;5093564;28;20036;-67
2022/02/03 21:06:24;;;;;;;;;;;;;;;;;;5094471;28;20488;-66
2022/02/03 21:08:50;;;;;;;6.07;1.15;;;;;;;;;;5103927;28;19911;-66
2022/02/03 21:11:17;;;;;;;3.90;0.90;;;;;;;;;;5113842;28;20597;-67
2022/02/03 21:13:44;;;;;;;2.33;0.60;;;;;;;;;;5114353;28;20038;-66
2022/02/03 21:16:10;;;;;;;1.88;0.70;;;;;;;;;;5114426;28;20076;-66
2022/02/03 21:18:40;;;;;;;4.60;0.88;;;;;;;;;;5113941;28;20027;-67
2022/02/03 21:21:06;;;;;;;6.18;0.68;;;;;;;;;;5113586;28;20020;-68
2022/02/03 21:23:33;;;;;;;5.80;1.02;;;;;;;;;;5113846;28;20125;-66
2022/02/03 21:26:01;;;;;;;1.65;0.60;;;;;;;;;;5095673;28;20043;-65
2022/02/03 21:28:31;;;;;;;1.85;0.70;;;;;;;;;;5099819;28;20016;-68
2022/02/03 21:30:58;;;;;;;2.20;0.65;;;;;;;;;;5095021;28;20055;-66
2022/02/03 21:33:31;;;;;;;7.90;0.98;;;;;;;;;;5095706;28;20036;-68
2022/02/03 21:36:00;;;;;;;2.10;0.65;;;;;;;;;;5113697;28;20039;-66
2022/02/03 21:38:26;;;;;;;2.97;0.75;;;;;;;;;;5095420;28;20031;-66
2022/02/03 21:40:53;;;;;;;1.13;0.60;;;;;;;;;;5095712;28;20471;-65
2022/02/03 21:43:19;;;;;;;2.20;0.70;;;;;;;;;;5093138;28;20028;-65
2022/02/03 21:45:45;;;;;;;2.97;0.75;;;;;;;;;;5089318;28;20043;-65
2022/02/03 21:48:11;;;;;;;3.30;0.82;;;;;;;;;;5098981;28;20091;-65
2022/02/03 21:50:40;;;;;;;4.05;0.80;;;;;;;;;;5093104;28;20118;-65
2022/02/03 21:53:16;;;;;;;2.10;0.70;;;;;;;;;;5074788;28;20054;-66
2022/02/03 21:55:43;;;;;;;3.70;1.20;;;;;;;;;;5092642;28;20105;-65
2022/02/03 21:58:09;;;;;;;2.95;0.70;;;;;;;;;;5092841;28;20032;-66
2022/02/03 22:00:35;;;;;;;4.13;0.60;;;;;;;;;;5094175;28;20051;-64
2022/02/03 22:03:01;;;;;;;3.60;0.60;;;;;;;;;;5108644;27;20020;-64
2022/02/03 22:05:28;;;;;;;3.60;0.70;;;;;;;;;;5133823;27;20105;-66
2022/02/03 22:07:54;;;;;;;2.65;0.80;;;;;;;;;;5133992;27;20019;-64
2022/02/03 22:10:21;;;;;;;1.70;0.80;;;;;;;;;;5134035;27;20033;-66
2022/02/03 22:12:48;;;;;;;1.30;0.60;;;;;;;;;;5133589;27;20015;-64
2022/02/03 22:15:15;;;;;;;1.25;0.50;;;;;;;;;;5133986;27;20031;-64
2022/02/03 22:17:41;;;;;;;1.88;0.60;;;;;;;;;;5134203;27;20016;-65
2022/02/03 22:20:16;;;;;;;1.80;0.55;;;;;;;;;;5134449;27;20127;-64
2022/02/03 22:28:07;;;;;;;4.25;0.60;;;;;;;;;;5113376;28;20085;-64
2022/02/03 22:39:05;;;;;;;2.75;0.75;;;;;;;;;;5102577;28;20079;-64
2022/02/03 22:44:25;;;;;;;1.08;0.50;;;;;;;;;;5113760;28;20463;-69
2022/02/03 22:49:36;;;;;;;2.13;0.60;;;;;;;;;;5113217;28;20024;-68
2022/02/03 22:52:03;;;;;;;5.05;0.60;;;;;;;;;;5111826;28;20467;-69
2022/02/03 22:54:29;;;;;;;2.25;0.70;;;;;;;;;;5114257;28;20047;-65
2022/02/03 22:56:55;;;;;;;1.42;0.50;;;;;;;;;;5116830;28;20027;-65
2022/02/03 22:59:59;;;;;;;1.88;0.60;;;;;;;;;;5116366;28;20036;-65
2022/02/03 23:02:06;;;;;;;4.00;0.63;;;;;;;;;;5096005;28;20024;-65
2022/02/03 23:04:32;;;;;;;1.20;0.50;;;;;;;;;;5096146;28;20440;-64
2022/02/03 23:09:59;;;;;;;;;;;;;;;;;;5073119;28;20097;-64
2022/02/03 23:17:46;;;;;;;9.52;0.77;;;;;;;;;;5096621;28;20406;-64
2022/02/03 23:20:20;;;;;;;5.15;0.60;;;;;;;;;;5096127;28;20093;-64
2022/02/03 23:22:46;;;;;;;1.67;0.63;;;;;;;;;;5077220;28;20467;-64
2022/02/03 23:25:15;;;;;;;3.63;0.82;;;;;;;;;;5106698;28;20115;-65
2022/02/03 23:30:08;;;;;;;5.15;0.82;;;;;;;;;;5110889;28;20028;-65
2022/02/03 23:32:34;;;;;;;6.15;0.60;;;;;;;;;;5131280;27;20031;-65
2022/02/03 23:37:37;;;;;;;3.58;0.70;;;;;;;;;;5136970;27;20034;-65
2022/02/03 23:40:09;;;;;;;4.30;0.65;;;;;;;;;;5125622;27;20050;-64
